createdAt,value
2022-08-21T00:00:17.578Z,1.95
2022-08-21T00:02:55.576Z,1.70
2022-08-21T00:05:23.651Z,1.80
2022-08-21T00:07:50.786Z,2.03
2022-08-21T00:10:18.227Z,1.70
2022-08-21T00:12:46.383Z,1.58
2022-08-21T00:15:17.429Z,1.80
2022-08-21T00:17:44.430Z,1.98
2022-08-21T00:20:13.984Z,2.28
2022-08-21T00:22:41.542Z,2.10
2022-08-21T00:25:10.210Z,2.03
2022-08-21T00:27:37.912Z,2.05
2022-08-21T00:30:08.044Z,2.00
2022-08-21T00:32:37.131Z,2.33
2022-08-21T00:35:05.572Z,1.75
2022-08-21T00:37:35.244Z,2.00
2022-08-21T00:40:02.783Z,2.00
2022-08-21T00:42:31.279Z,2.22
2022-08-21T00:44:59.025Z,1.60
2022-08-21T00:47:26.204Z,1.88
2022-08-21T00:50:47.426Z,2.05
2022-08-21T00:53:15.888Z,2.28
2022-08-21T00:55:43.154Z,2.10
2022-08-21T00:58:13.617Z,2.22
2022-08-21T01:00:43.162Z,1.88
2022-08-21T01:03:16.393Z,2.38
2022-08-21T01:05:44.180Z,2.08
2022-08-21T01:08:13.032Z,2.38
2022-08-21T01:10:40.345Z,2.33
2022-08-21T01:13:09.393Z,1.92
2022-08-21T01:15:39.690Z,2.00
2022-08-21T01:18:08.703Z,2.00
2022-08-21T01:20:36.469Z,2.55
2022-08-21T01:23:05.744Z,2.42
2022-08-21T01:25:33.743Z,2.05
2022-08-21T01:28:05.588Z,2.17
2022-08-21T01:30:35.751Z,2.33
2022-08-21T01:33:02.708Z,2.20
2022-08-21T01:35:29.975Z,2.22
2022-08-21T01:37:56.831Z,1.83
2022-08-21T01:40:23.861Z,2.05
2022-08-21T01:42:50.815Z,2.10
2022-08-21T01:45:18.141Z,2.10
2022-08-21T01:47:46.181Z,2.20
2022-08-21T01:50:15.690Z,2.10
2022-08-21T01:52:43.527Z,2.85
2022-08-21T01:55:12.182Z,2.17
2022-08-21T01:57:39.144Z,3.03
2022-08-21T02:00:10.807Z,2.60
2022-08-21T02:02:37.880Z,2.57
2022-08-21T02:05:05.927Z,2.75
2022-08-21T02:07:40.224Z,2.60
2022-08-21T02:10:10.229Z,2.53
2022-08-21T02:12:37.228Z,2.90
2022-08-21T02:15:06.868Z,3.35
2022-08-21T02:17:45.879Z,2.53
2022-08-21T02:20:22.457Z,2.55
2022-08-21T02:22:50.552Z,2.70
2022-08-21T02:25:19.242Z,2.35
2022-08-21T02:27:48.679Z,3.00
2022-08-21T02:30:21.597Z,2.80
2022-08-21T02:32:48.709Z,2.60
2022-08-21T02:35:15.733Z,3.10
2022-08-21T02:37:47.830Z,2.90
2022-08-21T02:40:15.421Z,2.53
2022-08-21T02:42:42.353Z,2.53
2022-08-21T02:45:09.591Z,2.80
2022-08-21T02:47:36.819Z,3.65
2022-08-21T02:50:06.700Z,2.67
2022-08-21T02:52:34.779Z,2.50
2022-08-21T02:55:02.334Z,2.10
2022-08-21T02:57:29.198Z,2.70
2022-08-21T02:59:56.029Z,2.22
2022-08-21T03:02:23.150Z,2.42
2022-08-21T03:04:53.556Z,2.60
2022-08-21T03:07:20.369Z,2.95
2022-08-21T03:09:55.213Z,2.58
2022-08-21T03:12:22.523Z,3.00
2022-08-21T03:14:49.339Z,2.70
2022-08-21T03:17:16.208Z,2.75
2022-08-21T03:19:43.044Z,2.80
2022-08-21T03:22:09.886Z,2.65
2022-08-21T03:24:36.731Z,2.70
2022-08-21T03:27:03.803Z,2.63
2022-08-21T03:32:03.169Z,2.80
2022-08-21T03:34:30.019Z,2.90
2022-08-21T03:36:57.160Z,2.47
2022-08-21T03:39:23.975Z,2.38
2022-08-21T03:41:50.784Z,2.40
2022-08-21T03:44:17.959Z,2.55
2022-08-21T03:46:44.736Z,2.70
2022-08-21T03:49:11.557Z,2.20
2022-08-21T03:51:38.332Z,2.75
2022-08-21T03:54:05.206Z,2.92
2022-08-21T03:56:32.324Z,2.67
2022-08-21T03:58:59.199Z,2.13
2022-08-21T04:01:26.408Z,2.65
2022-08-21T04:03:53.256Z,2.28
2022-08-21T04:06:20.317Z,2.10
2022-08-21T04:08:47.198Z,2.30
2022-08-21T04:11:14.068Z,2.40
2022-08-21T04:13:44.548Z,2.45
2022-08-21T04:16:12.547Z,2.10
2022-08-21T04:18:39.520Z,2.00
2022-08-21T04:21:08.595Z,2.00
2022-08-21T04:23:37.989Z,2.28
2022-08-21T04:26:04.970Z,2.15
2022-08-21T04:28:31.771Z,2.00
2022-08-21T04:30:58.814Z,2.05
2022-08-21T04:33:25.750Z,1.92
2022-08-21T04:35:52.607Z,1.80
2022-08-21T04:38:20.035Z,1.70
2022-08-21T04:40:47.305Z,2.00
2022-08-21T04:43:14.133Z,2.38
2022-08-21T04:45:44.673Z,1.90
2022-08-21T04:48:14.431Z,2.00
2022-08-21T04:51:19.754Z,1.98
2022-08-21T04:53:46.601Z,2.35
2022-08-21T04:56:19.245Z,1.95
2022-08-21T04:58:46.302Z,2.58
2022-08-21T05:01:21.257Z,2.33
2022-08-21T05:03:51.839Z,1.95
2022-08-21T05:06:19.174Z,1.83
2022-08-21T05:08:47.964Z,2.00
2022-08-21T05:11:14.847Z,2.00
2022-08-21T05:13:44.392Z,2.08
2022-08-21T05:16:11.339Z,2.42
2022-08-21T05:18:38.160Z,2.03
2022-08-21T05:21:05.774Z,2.20
2022-08-21T05:23:32.741Z,2.13
2022-08-21T05:25:59.604Z,1.83
2022-08-21T05:28:27.141Z,2.17
2022-08-21T05:30:54.841Z,2.30
2022-08-21T05:33:21.743Z,1.85
2022-08-21T05:35:53.028Z,1.70
2022-08-21T05:38:20.419Z,2.00
2022-08-21T05:40:47.809Z,1.77
2022-08-21T05:43:15.552Z,2.20
2022-08-21T05:45:44.366Z,1.63
2022-08-21T05:48:21.579Z,1.80
2022-08-21T05:50:50.300Z,2.25
2022-08-21T05:53:19.366Z,2.13
2022-08-21T05:55:47.358Z,1.83
2022-08-21T05:58:16.339Z,1.90
2022-08-21T06:00:44.296Z,1.73
2022-08-21T06:03:23.973Z,2.20
2022-08-21T06:05:51.175Z,1.90
2022-08-21T06:08:19.476Z,1.90
2022-08-21T06:10:47.671Z,2.08
2022-08-21T06:13:16.415Z,1.85
2022-08-21T06:15:43.615Z,2.00
2022-08-21T06:18:10.866Z,1.83
2022-08-21T06:20:38.251Z,2.70
2022-08-21T06:23:05.637Z,2.55
2022-08-21T06:25:32.610Z,2.40
2022-08-21T06:28:08.844Z,2.10
2022-08-21T06:30:37.358Z,2.25
2022-08-21T06:33:04.964Z,2.17
2022-08-21T06:35:31.907Z,2.03
2022-08-21T06:37:59.144Z,1.73
2022-08-21T06:40:27.749Z,1.80
2022-08-21T06:42:58.723Z,1.80
2022-08-21T06:45:26.073Z,1.77
2022-08-21T06:47:55.234Z,1.60
2022-08-21T06:50:22.134Z,2.05
2022-08-21T06:52:49.470Z,1.58
2022-08-21T06:55:21.667Z,1.80
2022-08-21T06:57:52.661Z,1.70
2022-08-21T07:00:20.108Z,1.60
2022-08-21T07:02:46.963Z,2.10
2022-08-21T07:05:18.483Z,1.52
2022-08-21T07:07:46.687Z,1.70
2022-08-21T07:10:22.391Z,1.40
2022-08-21T07:12:53.484Z,1.60
2022-08-21T07:15:27.877Z,1.73
2022-08-21T07:17:54.916Z,1.83
2022-08-21T07:20:21.794Z,1.70
2022-08-21T07:22:48.670Z,1.75
2022-08-21T07:25:15.537Z,1.52
2022-08-21T07:27:42.353Z,1.70
2022-08-21T07:30:09.576Z,1.70
2022-08-21T07:32:36.523Z,1.88
2022-08-21T07:35:03.712Z,1.73
2022-08-21T07:37:30.540Z,1.70
2022-08-21T07:39:57.572Z,1.40
2022-08-21T07:42:24.526Z,1.77
2022-08-21T07:44:55.261Z,1.50
2022-08-21T07:47:41.595Z,2.03
2022-08-21T07:50:10.646Z,1.52
2022-08-21T07:52:38.003Z,1.52
2022-08-21T07:55:06.613Z,1.60
2022-08-21T07:57:33.951Z,1.65
2022-08-21T08:00:00.941Z,1.60
2022-08-21T08:02:29.691Z,1.70
2022-08-21T08:05:01.918Z,1.67
2022-08-21T08:07:28.999Z,1.50
2022-08-21T08:09:55.979Z,1.77
2022-08-21T08:12:22.954Z,1.75
2022-08-21T08:14:49.832Z,1.60
2022-08-21T08:17:16.676Z,1.70
2022-08-21T08:19:43.561Z,1.80
2022-08-21T08:22:22.178Z,1.70
2022-08-21T08:24:49.422Z,1.63
2022-08-21T08:27:17.217Z,2.35
2022-08-21T08:29:45.285Z,2.00
2022-08-21T08:32:12.762Z,1.77
2022-08-21T08:34:40.404Z,1.70
2022-08-21T08:37:10.658Z,1.70
2022-08-21T08:39:37.803Z,1.65
2022-08-21T08:42:33.823Z,1.80
2022-08-21T08:45:12.750Z,1.50
2022-08-21T08:47:45.603Z,1.60
2022-08-21T08:50:30.343Z,2.45
2022-08-21T08:53:11.868Z,1.70
2022-08-21T08:55:42.813Z,2.05
2022-08-21T08:58:27.626Z,1.58
2022-08-21T09:00:56.104Z,1.60
2022-08-21T09:03:25.106Z,1.35
2022-08-21T09:06:10.274Z,1.30
2022-08-21T09:09:01.795Z,1.60
2022-08-21T09:11:38.349Z,1.80
2022-08-21T09:14:11.260Z,1.30
2022-08-21T09:16:56.569Z,1.60
2022-08-21T09:19:47.091Z,1.60
2022-08-21T09:22:35.104Z,1.58
2022-08-21T09:25:21.272Z,1.50
2022-08-21T09:27:51.583Z,2.20
2022-08-21T09:30:20.329Z,1.40
2022-08-21T09:32:47.240Z,1.92
2022-08-21T09:35:20.912Z,1.80
2022-08-21T09:37:52.845Z,1.98
2022-08-21T09:40:32.024Z,1.55
2022-08-21T09:43:03.874Z,1.38
2022-08-21T09:45:33.998Z,1.70
2022-08-21T09:48:21.537Z,1.77
2022-08-21T09:50:50.428Z,1.73
2022-08-21T09:53:27.723Z,1.83
2022-08-21T09:56:19.084Z,1.58
2022-08-21T09:58:50.634Z,1.77
2022-08-21T10:01:23.842Z,1.55
2022-08-21T10:04:08.843Z,1.67
2022-08-21T10:06:36.145Z,1.70
2022-08-21T10:09:18.757Z,1.55
2022-08-21T10:12:18.214Z,1.60
2022-08-21T10:15:08.300Z,1.70
2022-08-21T10:17:57.901Z,1.73
2022-08-21T10:20:45.790Z,2.10
2022-08-21T10:23:21.494Z,1.42
2022-08-21T10:26:26.905Z,1.60
2022-08-21T10:29:15.181Z,1.80
2022-08-21T10:31:58.914Z,1.60
2022-08-21T10:34:32.210Z,1.40
2022-08-21T10:37:24.986Z,1.40
2022-08-21T10:40:05.032Z,1.70
2022-08-21T10:42:58.486Z,1.80
2022-08-21T10:45:43.916Z,1.70
2022-08-21T10:48:23.766Z,1.48
2022-08-21T10:50:57.109Z,1.60
2022-08-21T10:53:33.441Z,1.10
2022-08-21T10:56:24.309Z,1.73
2022-08-21T10:59:03.229Z,1.85
2022-08-21T11:01:34.875Z,1.40
2022-08-21T11:04:30.016Z,1.20
2022-08-21T11:07:23.216Z,1.20
2022-08-21T11:09:55.456Z,1.35
2022-08-21T11:12:34.736Z,1.50
2022-08-21T11:15:27.050Z,1.30
2022-08-21T11:18:28.864Z,1.25
2022-08-21T11:21:11.073Z,1.20
2022-08-21T11:23:55.572Z,1.20
2022-08-21T11:26:34.783Z,1.20
2022-08-21T11:29:39.370Z,1.33
2022-08-21T11:32:31.621Z,1.00
2022-08-21T11:35:49.644Z,1.10
2022-08-21T11:38:35.644Z,1.42
2022-08-21T11:41:33.088Z,1.17
2022-08-21T11:44:18.909Z,1.20
2022-08-21T11:47:04.513Z,1.30
2022-08-21T11:49:47.846Z,1.33
2022-08-21T11:52:26.315Z,1.63
2022-08-21T11:55:01.061Z,1.00
2022-08-21T11:57:47.802Z,1.10
2022-08-21T12:00:35.529Z,1.10
2022-08-21T12:03:13.689Z,1.20
2022-08-21T12:05:54.874Z,1.75
2022-08-21T12:08:54.137Z,1.08
2022-08-21T12:11:20.910Z,1.30
2022-08-21T12:14:13.434Z,1.45
2022-08-21T12:19:12.664Z,1.48
2022-08-21T12:22:06.085Z,1.10
2022-08-21T12:24:44.068Z,1.15
2022-08-21T12:27:26.351Z,1.30
2022-08-21T12:29:57.598Z,1.30
2022-08-21T12:32:31.423Z,1.50
2022-08-21T12:35:24.827Z,1.13
2022-08-21T12:38:16.795Z,1.30
2022-08-21T12:40:51.642Z,1.23
2022-08-21T12:43:22.828Z,1.23
2022-08-21T12:45:52.009Z,1.48
2022-08-21T12:48:32.169Z,1.33
2022-08-21T12:51:10.438Z,1.30
2022-08-21T12:53:45.259Z,1.33
2022-08-21T12:56:15.766Z,1.25
2022-08-21T12:58:55.942Z,1.20
2022-08-21T13:01:38.109Z,1.25
2022-08-21T13:04:23.631Z,1.30
2022-08-21T13:06:54.383Z,1.30
2022-08-21T13:09:28.294Z,1.40
2022-08-21T13:11:55.772Z,1.45
2022-08-21T13:14:45.321Z,1.30
2022-08-21T13:17:13.849Z,1.73
2022-08-21T13:19:58.936Z,1.55
2022-08-21T13:22:35.099Z,1.15
2022-08-21T13:25:06.718Z,1.00
2022-08-21T13:27:35.343Z,1.25
2022-08-21T13:30:07.620Z,1.20
2022-08-21T13:35:29.945Z,1.30
2022-08-21T13:37:57.741Z,1.00
2022-08-21T13:40:32.500Z,1.30
2022-08-21T13:43:01.360Z,1.30
2022-08-21T13:45:36.903Z,1.05
2022-08-21T13:48:06.629Z,0.88
2022-08-21T13:50:36.481Z,1.30
2022-08-21T13:53:08.254Z,1.10
2022-08-21T13:55:41.047Z,1.30
2022-08-21T13:58:09.349Z,1.40
2022-08-21T14:00:49.005Z,1.23
2022-08-21T14:03:41.798Z,1.27
2022-08-21T14:06:18.138Z,1.30
2022-08-21T14:08:58.213Z,1.10
2022-08-21T14:11:26.890Z,1.30
2022-08-21T14:13:56.718Z,1.08
2022-08-21T14:16:29.998Z,1.30
2022-08-21T14:19:04.013Z,1.17
2022-08-21T14:21:34.130Z,1.40
2022-08-21T14:24:26.895Z,1.10
2022-08-21T14:27:06.956Z,1.38
2022-08-21T14:29:37.716Z,1.67
2022-08-21T14:32:25.545Z,1.23
2022-08-21T14:34:54.913Z,1.23
2022-08-21T14:37:22.746Z,1.20
2022-08-21T14:39:49.762Z,1.30
2022-08-21T14:42:17.176Z,1.05
2022-08-21T14:44:44.079Z,1.10
2022-08-21T14:47:11.078Z,1.00
2022-08-21T14:49:37.978Z,1.08
2022-08-21T14:52:05.079Z,1.23
2022-08-21T14:54:33.381Z,1.25
2022-08-21T14:57:09.682Z,1.10
2022-08-21T14:59:38.254Z,1.30
2022-08-21T15:02:05.875Z,1.17
2022-08-21T15:04:33.856Z,1.30
2022-08-21T15:07:00.768Z,1.00
2022-08-21T15:09:28.071Z,0.93
2022-08-21T15:11:57.403Z,1.55
2022-08-21T15:14:31.717Z,1.25
2022-08-21T15:16:58.742Z,1.08
2022-08-21T15:19:25.834Z,1.20
2022-08-21T15:21:52.783Z,1.30
2022-08-21T15:24:19.588Z,1.20
2022-08-21T15:26:46.520Z,1.05
2022-08-21T15:29:13.450Z,1.02
2022-08-21T15:31:59.329Z,1.10
2022-08-21T15:34:28.651Z,1.05
2022-08-21T15:36:57.574Z,1.20
2022-08-21T15:39:30.189Z,1.17
2022-08-21T15:41:59.539Z,1.40
2022-08-21T15:44:28.382Z,1.05
2022-08-21T15:46:56.492Z,1.40
2022-08-21T15:49:23.675Z,1.10
2022-08-21T15:51:51.365Z,1.10
2022-08-21T15:54:18.652Z,1.40
2022-08-21T15:56:48.313Z,1.38
2022-08-21T15:59:18.688Z,1.05
2022-08-21T16:01:47.111Z,0.95
2022-08-21T16:04:21.138Z,1.00
2022-08-21T16:06:54.096Z,1.20
2022-08-21T16:09:21.977Z,1.27
2022-08-21T16:11:48.868Z,1.27
2022-08-21T16:14:17.524Z,1.33
2022-08-21T16:16:44.850Z,1.20
2022-08-21T16:19:13.763Z,1.15
2022-08-21T16:21:41.038Z,1.15
2022-08-21T16:24:08.046Z,1.17
2022-08-21T16:26:34.977Z,1.50
2022-08-21T16:29:03.322Z,1.15
2022-08-21T16:31:31.916Z,1.42
2022-08-21T16:33:59.688Z,1.23
2022-08-21T16:36:27.420Z,1.13
2022-08-21T16:38:58.356Z,1.42
2022-08-21T16:41:28.604Z,0.90
2022-08-21T16:43:55.444Z,1.23
2022-08-21T16:46:22.452Z,1.17
2022-08-21T16:48:50.146Z,1.13
2022-08-21T16:51:17.370Z,1.10
2022-08-21T16:53:44.729Z,1.10
2022-08-21T16:56:14.084Z,1.30
2022-08-21T16:58:44.595Z,1.40
2022-08-21T17:01:15.178Z,0.98
2022-08-21T17:03:45.814Z,1.25
2022-08-21T17:06:14.524Z,1.10
2022-08-21T17:08:42.127Z,1.48
2022-08-21T17:11:37.994Z,1.10
2022-08-21T17:14:14.919Z,1.35
2022-08-21T17:16:45.622Z,1.58
2022-08-21T17:19:13.427Z,1.30
2022-08-21T17:21:40.442Z,1.60
2022-08-21T17:24:07.465Z,1.52
2022-08-21T17:26:34.634Z,1.20
2022-08-21T17:29:01.669Z,1.25
2022-08-21T17:31:30.160Z,1.38
2022-08-21T17:33:57.158Z,1.40
2022-08-21T17:36:27.639Z,1.42
2022-08-21T17:38:55.018Z,1.20
2022-08-21T17:41:22.427Z,1.30
2022-08-21T17:43:51.499Z,1.48
2022-08-21T17:46:26.854Z,1.55
2022-08-21T17:48:54.902Z,1.55
2022-08-21T17:51:22.289Z,1.42
2022-08-21T17:53:49.268Z,1.30
2022-08-21T17:56:18.491Z,1.40
2022-08-21T17:58:49.377Z,1.65
2022-08-21T18:01:16.989Z,1.42
2022-08-21T18:03:44.397Z,1.40
2022-08-21T18:06:15.488Z,1.63
2022-08-21T18:08:44.257Z,1.30
2022-08-21T18:11:11.107Z,1.58
2022-08-21T18:13:50.898Z,1.77
2022-08-21T18:16:19.504Z,1.50
2022-08-21T18:18:48.952Z,1.42
2022-08-21T18:21:16.434Z,1.30
2022-08-21T18:23:44.962Z,1.45
2022-08-21T18:26:15.340Z,1.55
2022-08-21T18:28:44.093Z,1.50
2022-08-21T18:31:12.390Z,1.35
2022-08-21T18:33:43.641Z,1.67
2022-08-21T18:36:24.607Z,1.50
2022-08-21T18:38:52.803Z,1.60
2022-08-21T18:41:19.642Z,1.60
2022-08-21T18:43:46.635Z,1.80
2022-08-21T18:46:13.532Z,1.80
2022-08-21T18:48:41.688Z,2.08
2022-08-21T18:51:11.345Z,4.50
2022-08-21T18:53:38.520Z,6.68
2022-08-21T18:56:07.465Z,11.27
2022-08-21T18:58:44.348Z,7.60
2022-08-21T19:01:11.653Z,6.20
2022-08-21T19:03:39.207Z,4.40
2022-08-21T19:06:06.255Z,2.60
2022-08-21T19:08:38.242Z,2.55
2022-08-21T19:11:06.601Z,2.50
2022-08-21T19:13:33.981Z,2.80
2022-08-21T19:16:03.742Z,1.90
2022-08-21T19:18:33.457Z,1.92
2022-08-21T19:21:02.918Z,2.60
2022-08-21T19:23:31.157Z,2.20
2022-08-21T19:26:03.949Z,1.80
2022-08-21T19:28:34.469Z,1.70
2022-08-21T19:31:16.408Z,1.55
2022-08-21T19:33:50.815Z,1.95
2022-08-21T19:36:18.057Z,1.60
2022-08-21T19:38:46.920Z,1.92
2022-08-21T19:41:16.603Z,1.90
2022-08-21T19:43:55.275Z,1.70
2022-08-21T19:46:28.305Z,2.00
2022-08-21T19:48:56.538Z,1.85
2022-08-21T19:51:24.696Z,1.90
2022-08-21T19:53:57.165Z,1.95
2022-08-21T19:56:40.018Z,2.15
2022-08-21T20:01:55.764Z,1.65
2022-08-21T20:04:23.754Z,1.80
2022-08-21T20:06:52.534Z,1.70
2022-08-21T20:09:19.767Z,2.00
2022-08-21T20:11:52.327Z,2.50
2022-08-21T20:14:26.616Z,2.28
2022-08-21T20:17:01.701Z,2.13
2022-08-21T20:21:58.907Z,2.17
2022-08-21T20:24:27.298Z,1.90
2022-08-21T20:26:55.253Z,2.17
2022-08-21T20:29:25.881Z,2.08
2022-08-21T20:31:59.910Z,2.20
2022-08-21T20:34:26.794Z,2.17
2022-08-21T20:36:53.698Z,2.22
2022-08-21T20:39:23.994Z,2.22
2022-08-21T20:41:52.345Z,2.25
2022-08-21T20:44:19.420Z,2.13
2022-08-21T20:46:46.385Z,2.92
2022-08-21T20:49:19.032Z,2.10
2022-08-21T20:51:50.697Z,2.15
2022-08-21T20:54:58.367Z,2.10
2022-08-21T20:57:46.000Z,1.90
2022-08-21T21:03:06.298Z,2.33
2022-08-21T21:05:54.996Z,1.95
2022-08-21T21:08:37.523Z,2.33
2022-08-21T21:11:23.711Z,2.13
2022-08-21T21:13:58.176Z,2.47
2022-08-21T21:16:57.845Z,2.35
2022-08-21T21:19:59.065Z,2.30
2022-08-21T21:22:30.595Z,2.50
2022-08-21T21:25:14.570Z,2.15
2022-08-21T21:27:49.110Z,2.47
2022-08-21T21:30:30.630Z,2.08
2022-08-21T21:32:57.655Z,2.28
2022-08-21T21:35:32.527Z,2.20
2022-08-21T21:38:19.649Z,2.45
2022-08-21T21:41:05.019Z,2.50
2022-08-21T21:43:46.917Z,2.55
2022-08-21T21:46:39.215Z,2.00
2022-08-21T21:49:54.654Z,2.25
2022-08-21T21:52:54.606Z,2.10
2022-08-21T21:55:44.888Z,2.10
2022-08-21T22:01:19.293Z,2.00
2022-08-21T22:03:59.652Z,1.95
2022-08-21T22:06:35.700Z,1.92
2022-08-21T22:09:10.334Z,2.28
2022-08-21T22:12:09.146Z,2.03
2022-08-21T22:14:40.079Z,1.92
2022-08-21T22:17:30.059Z,1.80
2022-08-21T22:19:59.564Z,1.85
2022-08-21T22:22:29.086Z,2.33
2022-08-21T22:25:06.482Z,1.92
2022-08-21T22:27:36.992Z,2.22
2022-08-21T22:30:09.322Z,2.08
2022-08-21T22:32:38.581Z,2.67
2022-08-21T22:35:11.701Z,1.80
2022-08-21T22:37:52.230Z,1.80
2022-08-21T22:40:30.255Z,2.10
2022-08-21T22:43:20.208Z,2.22
2022-08-21T22:45:53.162Z,1.80
2022-08-21T22:48:22.589Z,2.63
2022-08-21T22:51:07.192Z,2.30
2022-08-21T22:53:37.719Z,1.80
2022-08-21T22:56:07.588Z,1.80
2022-08-21T22:58:40.979Z,2.20
2022-08-21T23:01:27.714Z,2.13
2022-08-21T23:04:12.109Z,1.90
2022-08-21T23:06:48.855Z,2.30
2022-08-21T23:09:28.857Z,2.20
2022-08-21T23:12:23.996Z,2.30
2022-08-21T23:15:03.745Z,2.38
2022-08-21T23:18:05.037Z,1.70
2022-08-21T23:20:56.525Z,1.98
2022-08-21T23:23:30.400Z,2.00
2022-08-21T23:26:22.911Z,2.45
2022-08-21T23:29:10.226Z,2.40
2022-08-21T23:31:59.215Z,2.28
2022-08-21T23:35:02.367Z,2.17
2022-08-21T23:40:36.175Z,2.08
2022-08-21T23:43:39.519Z,2.60
2022-08-21T23:49:44.279Z,1.92
2022-08-21T23:52:23.098Z,2.45
2022-08-21T23:55:01.921Z,2.35
2022-08-21T23:58:04.998Z,2.10
